Time;durP1;ratioP1;P1;durP2;ratioP2;P2;SDS_P1;SDS_P2;PMS_P1;PMS_P2;Temp;Humidity;BMP_temperature;BMP_pressure;BME280_temperature;BME280_humidity;BME280_pressure;Samples;Min_cycle;Max_cycle;Signal;HPM_P1;HPM_P2
2020/12/13 00:01:33;;;;;;;93.28;37.05;;;;;;;;;;5076883;28;20379;-63
2020/12/13 00:03:58;;;;;;;99.32;37.50;;;;;;;;;;5079355;28;20076;-63
2020/12/13 00:06:25;;;;;;;88.88;35.53;;;;;;;;;;5081681;28;20473;-63
2020/12/13 00:08:51;;;;;;;89.00;37.85;;;;;;;;;;5082659;28;20024;-63
2020/12/13 00:11:17;;;;;;;97.80;40.80;;;;;;;;;;5072200;28;20078;-63
2020/12/13 00:13:43;;;;;;;89.80;38.67;;;;;;;;;;5068265;28;20037;-63
2020/12/13 00:16:09;;;;;;;102.32;41.30;;;;;;;;;;5081096;28;20024;-63
2020/12/13 00:18:35;;;;;;;98.47;39.08;;;;;;;;;;5066582;28;20027;-63
2020/12/13 00:21:01;;;;;;;84.85;36.72;;;;;;;;;;5071740;28;20025;-63
2020/12/13 00:23:27;;;;;;;94.25;40.10;;;;;;;;;;5074564;28;20135;-63
2020/12/13 00:25:53;;;;;;;99.07;40.70;;;;;;;;;;5083713;28;20290;-63
2020/12/13 00:28:19;;;;;;;105.32;38.65;;;;;;;;;;5074330;28;20367;-63
2020/12/13 00:30:45;;;;;;;98.25;41.28;;;;;;;;;;5074340;28;20105;-62
2020/12/13 00:33:11;;;;;;;90.53;37.63;;;;;;;;;;5053949;28;20563;-62
2020/12/13 00:35:37;;;;;;;100.47;39.67;;;;;;;;;;5069004;28;20420;-62
2020/12/13 00:38:03;;;;;;;107.40;40.90;;;;;;;;;;5088243;28;20024;-62
2020/12/13 00:40:29;;;;;;;95.03;39.28;;;;;;;;;;5081238;28;20039;-62
2020/12/13 00:42:55;;;;;;;95.20;38.78;;;;;;;;;;5082753;28;20027;-63
2020/12/13 00:45:21;;;;;;;92.30;37.17;;;;;;;;;;5077796;28;20032;-63
2020/12/13 00:47:47;;;;;;;90.47;39.13;;;;;;;;;;5073609;28;20078;-63
2020/12/13 00:50:13;;;;;;;87.93;37.78;;;;;;;;;;5078809;28;20028;-62
2020/12/13 00:52:40;;;;;;;100.70;39.17;;;;;;;;;;5066937;28;20106;-63
2020/12/13 00:55:06;;;;;;;92.88;37.03;;;;;;;;;;5073736;28;20029;-63
2020/12/13 00:57:32;;;;;;;91.03;38.97;;;;;;;;;;5075983;28;20660;-62
2020/12/13 00:59:58;;;;;;;99.93;39.72;;;;;;;;;;5069595;28;20037;-63
2020/12/13 01:02:24;;;;;;;89.30;37.35;;;;;;;;;;5076230;28;20032;-62
2020/12/13 01:04:50;;;;;;;91.63;38.10;;;;;;;;;;5076337;28;20028;-63
2020/12/13 01:07:15;;;;;;;97.28;38.15;;;;;;;;;;5067953;28;20044;-62
2020/12/13 01:09:41;;;;;;;88.18;38.95;;;;;;;;;;5069774;28;20121;-60
2020/12/13 01:12:07;;;;;;;102.55;39.20;;;;;;;;;;5075217;28;20030;-62
2020/12/13 01:14:33;;;;;;;99.63;39.97;;;;;;;;;;5083050;28;20028;-63
2020/12/13 01:16:59;;;;;;;92.15;38.72;;;;;;;;;;5081236;28;20024;-62
2020/12/13 01:19:25;;;;;;;97.30;38.58;;;;;;;;;;5070039;28;20029;-62
2020/12/13 01:21:51;;;;;;;91.90;37.55;;;;;;;;;;5073661;28;20080;-63
2020/12/13 01:24:17;;;;;;;96.30;38.70;;;;;;;;;;5067332;28;20027;-63
2020/12/13 01:26:43;;;;;;;96.30;40.10;;;;;;;;;;5075245;28;20024;-63
2020/12/13 01:29:09;;;;;;;107.88;41.35;;;;;;;;;;5070571;28;20028;-63
2020/12/13 01:31:35;;;;;;;103.18;39.50;;;;;;;;;;5059174;28;20533;-63
2020/12/13 01:34:02;;;;;;;88.65;37.42;;;;;;;;;;5065671;28;20051;-63
2020/12/13 01:36:28;;;;;;;104.85;40.92;;;;;;;;;;5067829;28;20032;-61
2020/12/13 01:38:54;;;;;;;95.75;40.13;;;;;;;;;;5070421;28;20031;-62
2020/12/13 01:41:21;;;;;;;92.50;38.35;;;;;;;;;;5065293;28;20058;-63
2020/12/13 01:44:00;;;;;;;98.43;38.10;;;;;;;;;;5067885;28;20028;-63
2020/12/13 01:46:28;;;;;;;93.90;39.53;;;;;;;;;;5068184;28;20029;-62
2020/12/13 01:48:55;;;;;;;98.43;38.42;;;;;;;;;;5067949;28;20020;-63
2020/12/13 01:51:37;;;;;;;105.18;40.05;;;;;;;;;;5055721;28;20025;-63
2020/12/13 01:54:04;;;;;;;95.13;39.10;;;;;;;;;;5066198;28;20028;-62
2020/12/13 01:56:32;;;;;;;88.90;38.42;;;;;;;;;;5063681;28;20028;-62
2020/12/13 01:58:58;;;;;;;88.60;37.00;;;;;;;;;;5067984;28;20235;-63
2020/12/13 02:01:25;;;;;;;97.72;37.53;;;;;;;;;;5066617;28;20074;-62
2020/12/13 02:03:55;;;;;;;98.65;39.75;;;;;;;;;;5070708;28;20055;-62
2020/12/13 02:06:22;;;;;;;88.65;38.35;;;;;;;;;;5069843;28;20028;-63
2020/12/13 02:08:49;;;;;;;105.10;41.92;;;;;;;;;;5069238;28;20031;-63
2020/12/13 02:11:15;;;;;;;95.32;40.63;;;;;;;;;;5064332;28;20024;-62
2020/12/13 02:13:41;;;;;;;101.55;39.70;;;;;;;;;;5066334;28;20057;-63
2020/12/13 02:16:08;;;;;;;95.03;39.20;;;;;;;;;;5068135;28;20059;-63
2020/12/13 02:18:34;;;;;;;105.78;42.22;;;;;;;;;;5071931;28;20093;-63
2020/12/13 02:21:01;;;;;;;93.43;39.47;;;;;;;;;;5066495;28;20032;-63
2020/12/13 02:23:29;;;;;;;95.80;39.33;;;;;;;;;;5067287;28;20349;-62
2020/12/13 02:25:55;;;;;;;96.85;38.83;;;;;;;;;;5069365;28;20395;-62
2020/12/13 02:28:21;;;;;;;93.75;39.80;;;;;;;;;;5069233;28;20055;-62
2020/12/13 02:30:47;;;;;;;100.68;39.97;;;;;;;;;;5069819;28;20028;-63
2020/12/13 02:33:13;;;;;;;97.30;38.95;;;;;;;;;;5063484;28;20136;-63
2020/12/13 02:35:39;;;;;;;102.82;41.13;;;;;;;;;;5062076;28;20040;-62
2020/12/13 02:38:05;;;;;;;98.00;39.47;;;;;;;;;;5067347;28;20543;-62
2020/12/13 02:40:31;;;;;;;90.35;37.65;;;;;;;;;;5065418;28;20092;-62
2020/12/13 02:42:57;;;;;;;93.72;38.90;;;;;;;;;;5063940;28;20372;-62
2020/12/13 02:45:23;;;;;;;92.47;39.80;;;;;;;;;;5064839;28;20033;-62
2020/12/13 02:47:49;;;;;;;91.28;36.55;;;;;;;;;;5071654;28;20482;-62
2020/12/13 02:50:15;;;;;;;92.82;37.47;;;;;;;;;;5068060;28;20608;-62
2020/12/13 02:52:41;;;;;;;91.38;37.03;;;;;;;;;;5065856;28;20025;-63
2020/12/13 02:55:07;;;;;;;89.53;37.88;;;;;;;;;;5065694;28;20029;-63
2020/12/13 02:57:33;;;;;;;86.90;37.42;;;;;;;;;;5066239;28;20074;-63
2020/12/13 02:59:59;;;;;;;92.20;38.03;;;;;;;;;;5069972;28;20039;-63
2020/12/13 03:02:25;;;;;;;101.88;38.75;;;;;;;;;;5071073;28;20028;-63
2020/12/13 03:04:50;;;;;;;94.70;38.67;;;;;;;;;;5073300;28;20090;-63
2020/12/13 03:07:16;;;;;;;98.80;40.00;;;;;;;;;;5072239;28;20020;-63
2020/12/13 03:09:42;;;;;;;94.43;39.05;;;;;;;;;;5070136;28;20783;-63
2020/12/13 03:12:08;;;;;;;83.22;36.95;;;;;;;;;;5073886;28;20367;-62
2020/12/13 03:14:34;;;;;;;100.82;39.83;;;;;;;;;;5068580;28;20028;-63
2020/12/13 03:17:00;;;;;;;87.90;37.15;;;;;;;;;;5077629;28;20028;-61
2020/12/13 03:19:26;;;;;;;87.05;37.35;;;;;;;;;;5071213;28;20021;-62
2020/12/13 03:21:52;;;;;;;91.13;38.05;;;;;;;;;;5067107;28;20033;-62
2020/12/13 03:24:18;;;;;;;102.85;40.03;;;;;;;;;;5072018;28;20036;-62
2020/12/13 03:26:44;;;;;;;96.45;39.88;;;;;;;;;;5070481;28;20024;-63
2020/12/13 03:29:10;;;;;;;92.57;36.22;;;;;;;;;;5072993;28;20383;-62
2020/12/13 03:31:36;;;;;;;90.15;36.72;;;;;;;;;;5069942;28;20098;-63
2020/12/13 03:34:03;;;;;;;95.57;35.97;;;;;;;;;;5069133;28;20036;-63
2020/12/13 03:36:28;;;;;;;96.13;38.72;;;;;;;;;;5066344;28;20042;-63
2020/12/13 03:38:54;;;;;;;100.90;38.05;;;;;;;;;;5070723;28;20360;-63
2020/12/13 03:41:20;;;;;;;89.35;37.15;;;;;;;;;;5067275;28;20025;-61
2020/12/13 03:43:46;;;;;;;102.55;39.60;;;;;;;;;;5067289;28;20024;-63
2020/12/13 03:46:12;;;;;;;85.78;36.40;;;;;;;;;;5068853;28;20035;-63
2020/12/13 03:48:38;;;;;;;87.75;35.95;;;;;;;;;;5071514;28;20036;-62
2020/12/13 03:51:04;;;;;;;94.10;39.03;;;;;;;;;;5068960;28;20506;-63
2020/12/13 03:53:30;;;;;;;88.43;36.45;;;;;;;;;;5064362;28;20028;-62
2020/12/13 03:55:56;;;;;;;91.50;35.80;;;;;;;;;;5061863;28;20078;-61
2020/12/13 03:58:22;;;;;;;92.72;35.60;;;;;;;;;;5066982;28;20082;-63
2020/12/13 04:00:48;;;;;;;88.13;36.75;;;;;;;;;;5071761;28;20483;-63
2020/12/13 04:03:14;;;;;;;89.88;36.70;;;;;;;;;;5068085;28;20028;-62
2020/12/13 04:05:40;;;;;;;88.32;36.63;;;;;;;;;;5067647;28;20506;-63
2020/12/13 04:08:06;;;;;;;101.25;39.13;;;;;;;;;;5063652;28;20729;-63
2020/12/13 04:10:32;;;;;;;95.43;38.58;;;;;;;;;;5065572;28;20476;-63
2020/12/13 04:12:58;;;;;;;102.72;40.92;;;;;;;;;;5066795;28;20094;-63
2020/12/13 04:15:24;;;;;;;88.78;36.78;;;;;;;;;;5070243;28;20039;-63
2020/12/13 04:17:50;;;;;;;97.72;36.33;;;;;;;;;;5071429;28;20029;-63
2020/12/13 04:20:16;;;;;;;88.93;36.53;;;;;;;;;;5069661;28;20036;-63
2020/12/13 04:22:42;;;;;;;94.53;35.33;;;;;;;;;;5064864;28;20059;-63
2020/12/13 04:25:08;;;;;;;82.40;35.00;;;;;;;;;;5069734;28;20498;-62
2020/12/13 04:27:34;;;;;;;82.72;35.67;;;;;;;;;;5069181;28;20456;-63
2020/12/13 04:30:00;;;;;;;82.03;36.45;;;;;;;;;;5066752;28;20040;-62
2020/12/13 04:32:26;;;;;;;82.97;34.83;;;;;;;;;;5068640;28;20082;-62
2020/12/13 04:34:52;;;;;;;86.47;37.03;;;;;;;;;;5072187;28;20032;-62
2020/12/13 04:37:19;;;;;;;87.78;37.85;;;;;;;;;;5067474;28;20032;-63
2020/12/13 04:39:45;;;;;;;97.07;37.58;;;;;;;;;;5063906;28;20024;-63
2020/12/13 04:42:10;;;;;;;90.82;35.30;;;;;;;;;;5064772;28;20482;-60
2020/12/13 04:44:37;;;;;;;94.20;38.83;;;;;;;;;;5067717;28;20444;-63
2020/12/13 04:47:04;;;;;;;93.07;36.15;;;;;;;;;;5069901;28;20024;-62
2020/12/13 04:49:34;;;;;;;89.60;36.72;;;;;;;;;;5065642;28;20178;-62
2020/12/13 04:52:01;;;;;;;95.32;37.45;;;;;;;;;;5068295;28;20413;-62
2020/12/13 04:54:29;;;;;;;92.75;37.10;;;;;;;;;;5069157;28;20123;-63
2020/12/13 04:56:56;;;;;;;91.97;38.30;;;;;;;;;;5069680;28;20024;-63
2020/12/13 04:59:22;;;;;;;82.95;36.22;;;;;;;;;;5064651;28;20028;-62
2020/12/13 05:01:49;;;;;;;92.57;35.47;;;;;;;;;;5071259;28;20413;-63
2020/12/13 05:04:15;;;;;;;96.13;37.38;;;;;;;;;;5064822;28;20043;-63
2020/12/13 05:06:42;;;;;;;93.78;38.22;;;;;;;;;;5068467;28;20032;-63
2020/12/13 05:09:09;;;;;;;89.13;36.35;;;;;;;;;;5065556;28;20054;-63
2020/12/13 05:11:35;;;;;;;78.55;33.65;;;;;;;;;;5072874;28;20047;-63
2020/12/13 05:14:03;;;;;;;83.15;35.65;;;;;;;;;;5062843;28;20140;-62
2020/12/13 05:16:29;;;;;;;84.50;35.40;;;;;;;;;;5062984;28;20028;-62
2020/12/13 05:18:55;;;;;;;88.68;37.38;;;;;;;;;;5062979;28;20537;-62
2020/12/13 05:21:24;;;;;;;79.50;35.53;;;;;;;;;;5065928;28;20522;-63
2020/12/13 05:23:50;;;;;;;95.90;36.88;;;;;;;;;;5066617;28;20074;-62
2020/12/13 05:26:17;;;;;;;92.07;37.83;;;;;;;;;;5063246;28;20025;-62
2020/12/13 05:28:47;;;;;;;92.88;36.67;;;;;;;;;;5069900;28;20093;-62
2020/12/13 05:31:21;;;;;;;87.30;35.25;;;;;;;;;;5067808;28;20059;-63
2020/12/13 05:33:54;;;;;;;86.60;36.13;;;;;;;;;;5066916;28;20020;-61
2020/12/13 05:36:20;;;;;;;95.28;38.85;;;;;;;;;;5062963;28;20036;-62
2020/12/13 05:38:46;;;;;;;97.40;36.85;;;;;;;;;;5066903;28;20480;-63
2020/12/13 05:41:14;;;;;;;98.28;39.03;;;;;;;;;;5066430;28;20025;-63
2020/12/13 05:43:48;;;;;;;89.28;37.05;;;;;;;;;;5064816;28;20043;-63
2020/12/13 05:49:34;;;;;;;91.47;38.35;;;;;;;;;;5070029;28;20032;-63
2020/12/13 05:51:46;;;;;;;96.53;37.17;;;;;;;;;;5065846;28;20412;-63
2020/12/13 05:54:25;;;;;;;100.07;39.55;;;;;;;;;;5071278;28;20511;-63
2020/12/13 05:56:57;;;;;;;93.97;37.10;;;;;;;;;;5066955;28;20031;-63
2020/12/13 05:59:26;;;;;;;89.82;35.70;;;;;;;;;;5065712;28;20029;-63
2020/12/13 06:01:53;;;;;;;90.55;35.80;;;;;;;;;;5066285;28;20428;-63
2020/12/13 06:04:24;;;;;;;88.20;37.63;;;;;;;;;;5065175;28;20053;-63
2020/12/13 06:06:53;;;;;;;88.18;36.28;;;;;;;;;;5066539;28;20166;-63
2020/12/13 06:09:20;;;;;;;82.93;34.63;;;;;;;;;;5066467;28;20039;-63
2020/12/13 06:11:47;;;;;;;88.57;36.25;;;;;;;;;;5069265;28;20410;-63
2020/12/13 06:14:14;;;;;;;82.28;33.30;;;;;;;;;;5068736;28;20024;-63
2020/12/13 06:16:40;;;;;;;79.28;33.35;;;;;;;;;;5059639;28;20025;-63
2020/12/13 06:19:08;;;;;;;88.50;36.75;;;;;;;;;;5068493;28;20028;-63
2020/12/13 06:21:34;;;;;;;94.13;36.95;;;;;;;;;;5062509;28;20576;-63
2020/12/13 06:24:01;;;;;;;98.80;37.30;;;;;;;;;;5065475;28;20056;-63
2020/12/13 06:26:28;;;;;;;109.45;40.03;;;;;;;;;;5065469;28;20028;-63
2020/12/13 06:28:54;;;;;;;87.28;36.80;;;;;;;;;;5065362;28;20017;-62
2020/12/13 06:31:20;;;;;;;88.72;35.83;;;;;;;;;;5068170;28;20028;-63
2020/12/13 06:33:46;;;;;;;100.43;37.60;;;;;;;;;;5068149;28;20035;-62
2020/12/13 06:36:12;;;;;;;97.00;36.55;;;;;;;;;;5069350;28;20099;-62
2020/12/13 06:38:39;;;;;;;90.82;36.50;;;;;;;;;;5065988;28;20143;-63
2020/12/13 06:41:09;;;;;;;90.13;36.33;;;;;;;;;;5070480;28;20043;-63
2020/12/13 06:43:39;;;;;;;101.90;40.60;;;;;;;;;;5066665;28;20036;-63
2020/12/13 06:46:16;;;;;;;94.78;36.92;;;;;;;;;;5069093;28;20380;-63
2020/12/13 06:48:43;;;;;;;102.10;39.65;;;;;;;;;;5069906;28;20488;-63
2020/12/13 06:51:09;;;;;;;99.80;38.58;;;;;;;;;;5068204;28;20048;-63
2020/12/13 06:53:35;;;;;;;107.05;41.38;;;;;;;;;;5071882;28;20024;-63
2020/12/13 06:56:06;;;;;;;110.90;40.78;;;;;;;;;;5074299;28;20028;-63
2020/12/13 06:58:39;;;;;;;114.85;42.25;;;;;;;;;;5072614;28;20473;-63
2020/12/13 07:01:14;;;;;;;105.18;42.13;;;;;;;;;;5071727;28;20033;-63
2020/12/13 07:03:40;;;;;;;109.38;41.17;;;;;;;;;;5067480;28;20040;-62
2020/12/13 07:06:07;;;;;;;116.72;42.95;;;;;;;;;;5062216;28;20529;-63
2020/12/13 07:08:33;;;;;;;102.80;39.70;;;;;;;;;;5070424;28;20425;-62
2020/12/13 07:11:01;;;;;;;109.15;41.33;;;;;;;;;;5067356;28;20146;-63
2020/12/13 07:13:29;;;;;;;105.80;39.80;;;;;;;;;;5065348;28;20071;-62
2020/12/13 07:16:05;;;;;;;105.05;40.15;;;;;;;;;;5063642;28;20115;-62
2020/12/13 07:18:32;;;;;;;109.28;40.00;;;;;;;;;;5069224;28;20028;-62
2020/12/13 07:20:58;;;;;;;107.95;38.92;;;;;;;;;;5065426;28;20361;-62
2020/12/13 07:23:25;;;;;;;93.93;39.97;;;;;;;;;;5069077;28;20394;-62
2020/12/13 07:25:51;;;;;;;101.63;37.45;;;;;;;;;;5065047;28;20067;-62
2020/12/13 07:28:18;;;;;;;116.97;43.90;;;;;;;;;;5069489;28;20124;-61
2020/12/13 07:30:44;;;;;;;106.35;40.55;;;;;;;;;;5067747;28;20024;-62
2020/12/13 07:33:10;;;;;;;105.80;40.20;;;;;;;;;;5070473;28;20036;-63
2020/12/13 07:35:36;;;;;;;98.78;39.72;;;;;;;;;;5070898;28;20036;-63
2020/12/13 07:38:03;;;;;;;111.70;42.88;;;;;;;;;;5071294;28;20016;-63
2020/12/13 07:40:29;;;;;;;94.47;37.70;;;;;;;;;;5066492;28;20068;-63
2020/12/13 07:42:56;;;;;;;105.32;39.42;;;;;;;;;;5068982;28;20035;-63
2020/12/13 07:45:23;;;;;;;111.03;41.65;;;;;;;;;;5077305;28;20032;-62
2020/12/13 07:47:50;;;;;;;103.30;39.42;;;;;;;;;;5080019;28;20032;-62
2020/12/13 07:50:16;;;;;;;103.85;38.22;;;;;;;;;;5073970;28;20107;-61
2020/12/13 07:52:44;;;;;;;119.45;42.92;;;;;;;;;;5077857;28;20031;-62
2020/12/13 07:55:10;;;;;;;109.95;42.25;;;;;;;;;;5080257;28;20418;-61
2020/12/13 07:57:36;;;;;;;107.25;41.67;;;;;;;;;;5067357;28;20040;-61
2020/12/13 08:00:09;;;;;;;93.28;38.63;;;;;;;;;;5070485;28;20361;-62
2020/12/13 08:02:35;;;;;;;;;;;;;;;;;;5082796;28;20032;-62
2020/12/13 08:05:01;;;;;;;101.88;39.47;;;;;;;;;;5073663;28;19916;-62
2020/12/13 08:07:28;;;;;;;108.25;42.78;;;;;;;;;;5072114;28;20056;-61
2020/12/13 08:09:55;;;;;;;102.30;41.42;;;;;;;;;;5077542;28;20460;-62
2020/12/13 08:12:29;;;;;;;108.43;41.78;;;;;;;;;;5078226;28;20415;-62
2020/12/13 08:14:55;;;;;;;103.65;40.30;;;;;;;;;;5072220;28;20043;-62
2020/12/13 08:17:21;;;;;;;99.10;38.40;;;;;;;;;;5064818;28;20020;-62
2020/12/13 08:19:52;;;;;;;103.13;40.95;;;;;;;;;;5080740;28;20024;-62
2020/12/13 08:22:23;;;;;;;102.60;38.63;;;;;;;;;;5060559;28;20411;-60
2020/12/13 08:24:53;;;;;;;113.13;40.30;;;;;;;;;;5072403;28;20044;-62
2020/12/13 08:27:19;;;;;;;107.82;40.40;;;;;;;;;;5073388;28;20031;-61
2020/12/13 08:29:45;;;;;;;97.78;40.47;;;;;;;;;;5083313;28;20504;-62
2020/12/13 08:32:12;;;;;;;101.82;38.92;;;;;;;;;;5073229;28;20027;-61
2020/12/13 08:34:38;;;;;;;102.45;39.05;;;;;;;;;;5076782;28;20479;-60
2020/12/13 08:37:04;;;;;;;98.18;39.28;;;;;;;;;;5066740;28;20025;-62
2020/12/13 08:39:32;;;;;;;104.93;40.60;;;;;;;;;;5075199;28;20031;-62
2020/12/13 08:41:58;;;;;;;105.68;43.17;;;;;;;;;;5076566;28;20536;-62
2020/12/13 08:44:25;;;;;;;95.10;38.95;;;;;;;;;;5076208;28;20051;-61
2020/12/13 08:46:51;;;;;;;95.85;38.67;;;;;;;;;;5077088;28;20028;-62
2020/12/13 08:49:24;;;;;;;98.05;38.60;;;;;;;;;;5077275;28;20029;-62
2020/12/13 08:51:50;;;;;;;94.40;37.47;;;;;;;;;;5072653;28;20067;-62
2020/12/13 08:54:16;;;;;;;100.28;38.47;;;;;;;;;;5077731;28;20027;-62
2020/12/13 08:56:42;;;;;;;105.28;39.25;;;;;;;;;;5078224;28;20024;-62
2020/12/13 08:59:08;;;;;;;102.13;40.30;;;;;;;;;;5059060;28;20025;-61
2020/12/13 09:01:37;;;;;;;89.22;40.83;;;;;;;;;;5073119;28;20119;-61
2020/12/13 09:04:20;;;;;;;94.43;39.35;;;;;;;;;;5085922;28;20642;-60
2020/12/13 09:06:57;;;;;;;98.05;40.20;;;;;;;;;;5075812;28;20031;-61
2020/12/13 09:09:23;;;;;;;110.50;51.83;;;;;;;;;;5076952;28;20479;-62
2020/12/13 09:11:49;;;;;;;94.82;38.55;;;;;;;;;;5072889;28;20032;-62
2020/12/13 09:14:25;;;;;;;95.18;39.58;;;;;;;;;;5070218;28;20787;-62
2020/12/13 09:16:51;;;;;;;105.38;45.05;;;;;;;;;;5081443;28;20078;-62
2020/12/13 09:19:17;;;;;;;87.47;37.75;;;;;;;;;;5070468;28;20383;-62
2020/12/13 09:21:43;;;;;;;101.75;40.72;;;;;;;;;;5065139;28;20025;-62
2020/12/13 09:24:09;;;;;;;97.35;38.75;;;;;;;;;;5077803;28;20415;-62
2020/12/13 09:26:35;;;;;;;98.65;39.17;;;;;;;;;;5068077;28;20025;-62
2020/12/13 09:29:01;;;;;;;98.95;38.90;;;;;;;;;;5067074;28;20029;-61
2020/12/13 09:31:27;;;;;;;93.55;38.72;;;;;;;;;;5069726;28;20025;-62
2020/12/13 09:33:53;;;;;;;96.63;37.75;;;;;;;;;;5067636;28;20035;-62
2020/12/13 09:36:19;;;;;;;93.13;40.47;;;;;;;;;;5076107;28;20086;-60
2020/12/13 09:38:45;;;;;;;98.35;41.65;;;;;;;;;;5066295;28;20021;-62
2020/12/13 09:41:17;;;;;;;98.97;38.67;;;;;;;;;;5065649;28;20081;-61
2020/12/13 09:43:43;;;;;;;92.80;40.80;;;;;;;;;;5068143;28;20024;-61
2020/12/13 09:46:09;;;;;;;94.32;40.05;;;;;;;;;;5063271;28;20033;-61
2020/12/13 09:48:34;;;;;;;106.53;40.67;;;;;;;;;;5081151;28;20055;-61
2020/12/13 09:51:00;;;;;;;90.10;38.33;;;;;;;;;;5078894;28;20028;-62
2020/12/13 09:53:26;;;;;;;91.38;39.25;;;;;;;;;;5085811;28;20028;-62
2020/12/13 09:55:52;;;;;;;93.03;39.50;;;;;;;;;;5077167;28;20032;-62
2020/12/13 09:58:18;;;;;;;95.35;41.50;;;;;;;;;;5064049;28;20033;-62
2020/12/13 10:00:44;;;;;;;95.00;39.20;;;;;;;;;;5054668;28;20036;-61
2020/12/13 10:03:10;;;;;;;104.13;41.30;;;;;;;;;;5074655;28;20037;-62
2020/12/13 10:05:55;;;;;;;90.55;39.25;;;;;;;;;;5057663;28;20041;-62
2020/12/13 10:11:05;;;;;;;93.05;37.95;;;;;;;;;;5063961;28;20617;-62
2020/12/13 10:13:31;;;;;;;94.82;40.22;;;;;;;;;;5070251;28;20028;-62
2020/12/13 10:15:57;;;;;;;88.18;37.38;;;;;;;;;;5086114;28;20032;-62
2020/12/13 10:18:23;;;;;;;89.43;38.97;;;;;;;;;;5083635;28;20027;-62
2020/12/13 10:20:49;;;;;;;93.32;38.72;;;;;;;;;;5083168;28;20028;-62
2020/12/13 10:23:15;;;;;;;88.97;37.28;;;;;;;;;;5071941;28;20541;-62
2020/12/13 10:25:47;;;;;;;90.05;39.42;;;;;;;;;;5084341;28;20028;-59
2020/12/13 10:28:13;;;;;;;99.82;40.90;;;;;;;;;;5060673;28;20031;-62
2020/12/13 10:30:39;;;;;;;109.43;48.53;;;;;;;;;;5066643;28;20024;-62
2020/12/13 10:33:05;;;;;;;89.20;38.40;;;;;;;;;;5078014;28;20035;-62
2020/12/13 10:35:31;;;;;;;90.78;37.22;;;;;;;;;;5081150;28;20028;-62
2020/12/13 10:37:57;;;;;;;120.15;51.28;;;;;;;;;;5084528;28;20016;-62
2020/12/13 10:40:23;;;;;;;91.10;39.08;;;;;;;;;;5077892;28;20024;-62
2020/12/13 10:42:49;;;;;;;87.47;36.53;;;;;;;;;;5071869;28;20024;-63
2020/12/13 10:45:15;;;;;;;91.47;39.03;;;;;;;;;;5076408;28;20048;-62
2020/12/13 10:47:41;;;;;;;92.05;41.50;;;;;;;;;;5082438;28;20459;-63
2020/12/13 10:50:07;;;;;;;85.55;37.70;;;;;;;;;;5053797;28;20037;-62
2020/12/13 10:52:33;;;;;;;85.10;36.17;;;;;;;;;;5070357;28;20024;-62
2020/12/13 10:54:59;;;;;;;81.65;35.78;;;;;;;;;;5066937;28;20041;-62
2020/12/13 10:57:25;;;;;;;84.53;36.30;;;;;;;;;;5084584;28;20028;-62
2020/12/13 10:59:51;;;;;;;81.45;35.92;;;;;;;;;;5084643;28;20016;-62
2020/12/13 11:02:17;;;;;;;90.40;37.63;;;;;;;;;;5070913;28;20453;-62
2020/12/13 11:04:43;;;;;;;84.55;38.63;;;;;;;;;;5067701;28;20036;-61
2020/12/13 11:07:09;;;;;;;84.75;36.78;;;;;;;;;;5084362;28;20036;-62
2020/12/13 11:09:34;;;;;;;85.82;36.67;;;;;;;;;;5085771;28;20038;-62
2020/12/13 11:12:00;;;;;;;82.32;36.55;;;;;;;;;;5081021;28;20032;-61
2020/12/13 11:14:26;;;;;;;94.22;38.03;;;;;;;;;;5064722;28;20032;-62
2020/12/13 11:16:52;;;;;;;93.93;39.10;;;;;;;;;;5065479;28;20032;-62
2020/12/13 11:19:18;;;;;;;89.10;37.28;;;;;;;;;;5068855;28;20464;-63
2020/12/13 11:21:47;;;;;;;87.78;37.50;;;;;;;;;;5078767;28;20491;-63
2020/12/13 11:24:13;;;;;;;86.20;36.63;;;;;;;;;;5080908;28;20020;-63
2020/12/13 11:26:41;;;;;;;91.03;39.13;;;;;;;;;;5076651;28;20048;-63
2020/12/13 11:29:07;;;;;;;87.07;36.38;;;;;;;;;;5082072;28;20032;-63
2020/12/13 11:31:34;;;;;;;87.53;37.33;;;;;;;;;;5074957;28;20429;-63
2020/12/13 11:33:59;;;;;;;81.45;35.70;;;;;;;;;;5071073;28;20021;-63
2020/12/13 11:36:27;;;;;;;85.93;37.50;;;;;;;;;;5072829;28;20379;-63
2020/12/13 11:38:53;;;;;;;93.75;38.90;;;;;;;;;;5069945;28;20044;-63
2020/12/13 11:41:19;;;;;;;79.00;36.35;;;;;;;;;;5072550;28;20032;-63
2020/12/13 11:43:45;;;;;;;90.93;39.75;;;;;;;;;;5070800;28;20056;-63
2020/12/13 11:46:10;;;;;;;86.75;37.40;;;;;;;;;;5064400;28;20032;-63
2020/12/13 11:48:36;;;;;;;84.97;37.30;;;;;;;;;;5066343;28;20031;-63
2020/12/13 11:51:02;;;;;;;83.53;37.80;;;;;;;;;;5070441;28;20043;-63
2020/12/13 11:53:28;;;;;;;86.82;37.33;;;;;;;;;;5073566;28;20032;-63
2020/12/13 11:55:55;;;;;;;87.43;36.50;;;;;;;;;;5072666;28;20027;-63
2020/12/13 11:58:21;;;;;;;89.00;38.03;;;;;;;;;;5064711;28;20401;-61
2020/12/13 12:00:47;;;;;;;82.47;35.95;;;;;;;;;;5068295;28;20044;-61
2020/12/13 12:03:13;;;;;;;88.53;38.08;;;;;;;;;;5060413;28;20779;-63
2020/12/13 12:05:38;;;;;;;89.07;37.22;;;;;;;;;;5067310;28;20044;-63
2020/12/13 12:08:04;;;;;;;82.45;36.30;;;;;;;;;;5076428;28;20039;-62
2020/12/13 12:10:30;;;;;;;73.97;34.03;;;;;;;;;;5077432;28;20075;-63
2020/12/13 12:12:56;;;;;;;82.20;36.72;;;;;;;;;;5077230;28;20020;-63
2020/12/13 12:15:22;;;;;;;81.38;35.90;;;;;;;;;;5071203;28;20039;-63
2020/12/13 12:17:48;;;;;;;82.35;36.97;;;;;;;;;;5067512;28;20114;-63
2020/12/13 12:20:18;;;;;;;83.88;37.42;;;;;;;;;;5066673;28;20078;-63
2020/12/13 12:22:45;;;;;;;79.85;35.88;;;;;;;;;;5064562;28;20028;-62
2020/12/13 12:25:11;;;;;;;81.03;34.42;;;;;;;;;;5067186;28;20024;-63
2020/12/13 12:27:37;;;;;;;81.47;35.83;;;;;;;;;;5063734;28;20036;-63
2020/12/13 12:30:05;;;;;;;77.95;34.95;;;;;;;;;;5062565;28;20105;-62
2020/12/13 12:32:31;;;;;;;79.22;35.33;;;;;;;;;;5065533;28;20067;-63
2020/12/13 12:34:57;;;;;;;80.03;35.10;;;;;;;;;;5066220;28;20043;-63
2020/12/13 12:37:24;;;;;;;76.63;36.45;;;;;;;;;;5068298;28;20520;-62
2020/12/13 12:39:50;;;;;;;82.32;36.65;;;;;;;;;;5064449;28;20028;-61
2020/12/13 12:42:16;;;;;;;88.18;37.08;;;;;;;;;;5066865;28;20024;-62
2020/12/13 12:44:45;;;;;;;83.68;37.35;;;;;;;;;;5065164;28;20036;-62
2020/12/13 12:47:11;;;;;;;84.65;36.72;;;;;;;;;;5064581;28;20020;-62
2020/12/13 12:49:37;;;;;;;76.65;34.95;;;;;;;;;;5064924;28;20082;-62
2020/12/13 12:52:03;;;;;;;85.03;37.38;;;;;;;;;;5063067;28;20044;-63
2020/12/13 12:54:29;;;;;;;88.88;37.97;;;;;;;;;;5064405;28;20024;-62
2020/12/13 12:56:55;;;;;;;79.13;35.17;;;;;;;;;;5065293;28;20117;-63
2020/12/13 12:59:28;;;;;;;73.63;35.60;;;;;;;;;;5065900;28;20020;-62
2020/12/13 13:01:57;;;;;;;;;;;;;;;;;;5065499;28;20025;-62
2020/12/13 13:04:28;;;;;;;82.55;37.13;;;;;;;;;;5065590;28;19966;-62
2020/12/13 13:09:30;;;;;;;75.63;35.38;;;;;;;;;;5066207;28;20060;-63
2020/12/13 13:11:56;;;;;;;80.05;37.03;;;;;;;;;;5063383;28;20051;-62
2020/12/13 13:14:22;;;;;;;77.82;34.78;;;;;;;;;;5061515;28;20060;-62
2020/12/13 13:16:53;;;;;;;86.15;38.83;;;;;;;;;;5063122;28;20116;-62
2020/12/13 13:19:20;;;;;;;82.88;38.03;;;;;;;;;;5064775;28;20029;-62
2020/12/13 13:21:47;;;;;;;92.65;49.45;;;;;;;;;;5062671;28;20052;-63
2020/12/13 13:24:14;;;;;;;79.80;35.75;;;;;;;;;;5064603;28;20028;-62
2020/12/13 13:26:40;;;;;;;77.05;33.10;;;;;;;;;;5065161;28;20028;-63
2020/12/13 13:29:07;;;;;;;81.53;37.60;;;;;;;;;;5069785;28;20666;-63
2020/12/13 13:31:33;;;;;;;82.15;35.42;;;;;;;;;;5072561;28;20495;-63
2020/12/13 13:33:59;;;;;;;86.45;36.35;;;;;;;;;;5069377;28;20065;-64
2020/12/13 13:36:25;;;;;;;76.00;34.20;;;;;;;;;;5065599;28;20031;-64
2020/12/13 13:38:51;;;;;;;76.50;35.97;;;;;;;;;;5074028;28;20028;-64
2020/12/13 13:41:23;;;;;;;82.10;35.80;;;;;;;;;;5072493;28;20033;-64
2020/12/13 13:43:53;;;;;;;79.60;35.20;;;;;;;;;;5074418;28;20044;-64
2020/12/13 13:49:24;;;;;;;71.70;33.78;;;;;;;;;;5069516;28;20082;-64
2020/12/13 13:51:50;;;;;;;78.43;35.83;;;;;;;;;;5068871;28;20519;-63
2020/12/13 13:54:18;;;;;;;81.75;35.15;;;;;;;;;;5061777;28;20036;-64
2020/12/13 13:59:25;;;;;;;84.40;37.03;;;;;;;;;;5067757;28;20068;-63
2020/12/13 14:01:51;;;;;;;76.53;35.28;;;;;;;;;;5069379;28;20065;-63
2020/12/13 14:04:17;;;;;;;78.53;33.70;;;;;;;;;;5069650;28;20042;-63
2020/12/13 14:07:19;;;;;;;76.70;35.20;;;;;;;;;;5070698;28;20043;-64
2020/12/13 14:09:38;;;;;;;81.00;37.67;;;;;;;;;;5066538;28;20056;-64
2020/12/13 14:12:04;;;;;;;82.80;36.17;;;;;;;;;;5082190;28;20035;-63
2020/12/13 14:14:30;;;;;;;81.40;37.55;;;;;;;;;;5082832;28;20055;-63
2020/12/13 14:16:56;;;;;;;83.82;37.13;;;;;;;;;;5085448;28;20063;-64
2020/12/13 14:19:24;;;;;;;84.93;36.10;;;;;;;;;;5086089;28;20035;-64
2020/12/13 14:21:50;;;;;;;80.72;37.13;;;;;;;;;;5062519;28;20066;-63
2020/12/13 14:24:16;;;;;;;84.07;36.35;;;;;;;;;;5075925;28;20016;-63
2020/12/13 14:26:42;;;;;;;77.82;35.92;;;;;;;;;;5066657;28;20451;-63
2020/12/13 14:29:09;;;;;;;75.35;35.95;;;;;;;;;;5073621;28;20043;-64